Time;durP1;ratioP1;P1;durP2;ratioP2;P2;SDS_P1;SDS_P2;PMS_P1;PMS_P2;Temp;Humidity;BMP_temperature;BMP_pressure;BME280_temperature;BME280_humidity;BME280_pressure;Samples;Min_cycle;Max_cycle;Signal;HPM_P1;HPM_P2
2021/12/22 00:00:08;;;;;;;;;88.00;69.75;;;;;;;;5049078;28;8818;-75
2021/12/22 00:02:34;;;;;;;;;80.75;60.50;;;;;;;;5048562;27;9242;-76
2021/12/22 00:05:00;;;;;;;;;84.75;67.50;;;;;;;;5046652;27;8802;-76
2021/12/22 00:07:25;;;;;;;;;84.67;69.67;;;;;;;;5046030;27;8989;-76
2021/12/22 00:09:50;;;;;;;;;80.33;62.67;;;;;;;;5049537;27;8852;-76
2021/12/22 00:12:16;;;;;;;;;82.67;64.67;;;;;;;;5049631;28;11582;-76
2021/12/22 00:14:41;;;;;;;;;89.00;72.00;;;;;;;;5049675;28;8949;-76
2021/12/22 00:17:07;;;;;;;;;89.25;70.00;;;;;;;;5049504;28;8808;-76
2021/12/22 00:19:33;;;;;;;;;87.00;67.00;;;;;;;;5049884;27;8847;-78
2021/12/22 00:21:58;;;;;;;;;84.00;65.33;;;;;;;;5049250;28;8829;-78
2021/12/22 00:24:23;;;;;;;;;89.67;69.00;;;;;;;;5047214;27;11610;-78
2021/12/22 00:26:49;;;;;;;;;92.33;72.00;;;;;;;;5049061;28;11132;-76
2021/12/22 00:29:16;;;;;;;;;84.67;66.67;;;;;;;;5049304;27;8942;-75
2021/12/22 00:31:46;;;;;;;;;83.00;62.75;;;;;;;;5052488;28;9773;-77
2021/12/22 00:34:16;;;;;;;;;83.00;65.25;;;;;;;;5052554;28;8810;-79
2021/12/22 00:36:42;;;;;;;;;57.75;49.50;;;;;;;;5052479;28;8842;-79
2021/12/22 00:39:08;;;;;;;;;65.75;49.75;;;;;;;;5052391;27;8785;-79
2021/12/22 00:41:33;;;;;;;;;73.67;61.00;;;;;;;;5053022;28;8832;-79
2021/12/22 00:43:58;;;;;;;;;71.67;57.33;;;;;;;;5070418;27;8840;-79
2021/12/22 00:46:24;;;;;;;;;82.33;63.67;;;;;;;;5051319;28;8808;-80
2021/12/22 00:48:49;;;;;;;;;78.33;59.33;;;;;;;;5052235;27;11622;-80
2021/12/22 00:51:14;;;;;;;;;85.33;66.00;;;;;;;;5082336;27;8818;-80
2021/12/22 00:53:40;;;;;;;;;78.33;58.33;;;;;;;;5060973;27;8944;-80
2021/12/22 00:56:07;;;;;;;;;84.00;67.50;;;;;;;;5052213;27;9582;-80
2021/12/22 00:58:32;;;;;;;;;90.25;69.00;;;;;;;;5052200;27;8728;-80
2021/12/22 01:00:57;;;;;;;;;82.33;64.67;;;;;;;;5052254;28;9555;-79
2021/12/22 01:03:23;;;;;;;;;83.50;67.25;;;;;;;;5052115;27;11599;-79
2021/12/22 01:05:48;;;;;;;;;97.00;75.00;;;;;;;;5054816;27;8866;-79
2021/12/22 01:08:13;;;;;;;;;93.00;76.75;;;;;;;;5051931;28;8904;-79
2021/12/22 01:10:39;;;;;;;;;86.00;68.75;;;;;;;;5052376;28;8812;-81
2021/12/22 01:13:05;;;;;;;;;99.50;79.75;;;;;;;;5050282;27;8804;-80
2021/12/22 01:15:31;;;;;;;;;103.60;83.80;;;;;;;;5052088;28;8772;-80
2021/12/22 01:18:02;;;;;;;;;88.00;71.25;;;;;;;;5051934;27;8820;-80
2021/12/22 01:20:32;;;;;;;;;103.00;85.75;;;;;;;;5052106;28;8792;-80
2021/12/22 01:23:05;;;;;;;;;109.25;97.25;;;;;;;;5039133;28;8792;-80
2021/12/22 01:25:37;;;;;;;;;121.40;106.40;;;;;;;;5050806;27;8794;-80
2021/12/22 01:28:03;;;;;;;;;104.50;86.50;;;;;;;;5038938;28;8900;-80
2021/12/22 01:30:31;;;;;;;;;106.50;89.75;;;;;;;;5051685;27;11588;-80
2021/12/22 01:32:57;;;;;;;;;105.75;89.75;;;;;;;;5052038;28;8838;-80
2021/12/22 01:35:24;;;;;;;;;109.75;89.25;;;;;;;;5050655;27;8831;-80
2021/12/22 01:37:49;;;;;;;;;98.25;78.50;;;;;;;;5051742;28;9609;-80
2021/12/22 01:40:16;;;;;;;;;102.67;84.00;;;;;;;;5051643;27;9570;-80
2021/12/22 01:42:41;;;;;;;;;102.25;77.50;;;;;;;;5051423;28;11586;-80
2021/12/22 01:45:25;;;;;;;;;103.00;79.50;;;;;;;;5067641;27;8792;-80
2021/12/22 01:50:45;;;;;;;;;103.00;85.75;;;;;;;;5055948;27;8788;-79
2021/12/22 01:53:29;;;;;;;;;108.00;94.50;;;;;;;;5081900;27;8760;-80
2021/12/22 01:56:04;;;;;;;;;98.75;77.75;;;;;;;;5053299;27;8836;-81
2021/12/22 01:58:34;;;;;;;;;98.00;77.00;;;;;;;;5051597;28;8763;-80
2021/12/22 02:01:00;;;;;;;;;98.00;76.75;;;;;;;;5051465;28;8889;-80
2021/12/22 02:03:25;;;;;;;;;85.25;68.50;;;;;;;;5051534;27;8792;-80
2021/12/22 02:05:51;;;;;;;;;101.33;84.00;;;;;;;;5054307;27;8922;-79
2021/12/22 02:08:16;;;;;;;;;95.00;75.25;;;;;;;;5070703;27;11523;-79
2021/12/22 02:10:46;;;;;;;;;97.00;74.67;;;;;;;;5071566;28;8829;-80
2021/12/22 02:13:16;;;;;;;;;97.00;79.25;;;;;;;;5071255;28;8777;-79
2021/12/22 02:15:43;;;;;;;;;98.25;78.75;;;;;;;;5071172;28;8923;-79
2021/12/22 02:18:14;;;;;;;;;94.00;72.25;;;;;;;;5070372;27;8829;-79
2021/12/22 02:20:40;;;;;;;;;100.50;83.00;;;;;;;;5070911;28;9735;-78
2021/12/22 02:23:05;;;;;;;;;99.75;80.75;;;;;;;;5071737;28;8824;-80
2021/12/22 02:25:36;;;;;;;;;97.00;77.67;;;;;;;;5052785;27;8830;-79
2021/12/22 02:28:04;;;;;;;;;103.25;82.50;;;;;;;;5049099;28;11582;-79
2021/12/22 02:30:29;;;;;;;;;110.33;91.67;;;;;;;;5051056;27;8800;-79
2021/12/22 02:35:41;;;;;;;;;97.25;77.00;;;;;;;;5051192;28;8824;-79
2021/12/22 02:38:15;;;;;;;;;108.50;91.25;;;;;;;;5040197;28;8906;-79
2021/12/22 02:40:46;;;;;;;;;95.50;77.00;;;;;;;;5050935;28;8887;-79
2021/12/22 02:43:11;;;;;;;;;102.75;83.25;;;;;;;;5062730;27;8864;-79
2021/12/22 02:45:37;;;;;;;;;96.50;77.00;;;;;;;;5063147;27;8796;-78
2021/12/22 02:48:04;;;;;;;;;95.00;72.50;;;;;;;;5049635;28;8877;-78
2021/12/22 02:50:29;;;;;;;;;94.00;74.00;;;;;;;;5050897;27;8788;-78
2021/12/22 02:53:06;;;;;;;;;103.50;81.50;;;;;;;;5094317;27;8979;-78
2021/12/22 02:56:00;;;;;;;;;90.50;72.75;;;;;;;;5050966;28;8804;-78
2021/12/22 02:58:32;;;;;;;;;98.25;76.50;;;;;;;;5046387;27;8804;-78
2021/12/22 03:01:12;;;;;;;;;104.25;81.75;;;;;;;;5049121;27;9767;-79
2021/12/22 03:06:36;;;;;;;;;117.67;108.33;;;;;;;;5063413;27;8814;-80
2021/12/22 03:09:18;;;;;;;;;97.25;78.00;;;;;;;;5050903;27;8772;-81
2021/12/22 03:11:43;;;;;;;;;91.75;72.50;;;;;;;;5036011;27;9271;-80
2021/12/22 03:14:09;;;;;;;;;97.00;74.33;;;;;;;;5050754;28;8784;-80
2021/12/22 03:16:34;;;;;;;;;96.00;75.00;;;;;;;;5037509;28;9558;-79
2021/12/22 03:18:59;;;;;;;;;91.33;71.33;;;;;;;;5050399;28;8812;-80
2021/12/22 03:21:25;;;;;;;;;82.67;64.33;;;;;;;;5051013;27;8854;-80
2021/12/22 03:23:52;;;;;;;;;84.00;65.33;;;;;;;;5066949;27;8988;-79
2021/12/22 03:26:18;;;;;;;;;87.75;68.50;;;;;;;;5037063;27;10912;-78
2021/12/22 03:28:45;;;;;;;;;85.25;66.00;;;;;;;;5048768;28;8804;-79
2021/12/22 03:31:10;;;;;;;;;89.25;71.50;;;;;;;;5043954;28;8792;-78
2021/12/22 03:33:36;;;;;;;;;95.67;77.00;;;;;;;;5050826;28;8922;-79
2021/12/22 03:36:01;;;;;;;;;83.75;67.75;;;;;;;;5048537;27;8815;-79
2021/12/22 03:38:26;;;;;;;;;100.00;83.67;;;;;;;;5050508;28;8808;-78
2021/12/22 03:40:52;;;;;;;;;96.33;78.33;;;;;;;;5050216;27;8800;-78
2021/12/22 03:43:17;;;;;;;;;95.25;74.25;;;;;;;;5065681;27;11458;-78
2021/12/22 03:45:43;;;;;;;;;101.75;81.50;;;;;;;;5052712;27;8866;-78
2021/12/22 03:48:08;;;;;;;;;103.00;76.25;;;;;;;;5051662;27;8828;-79
2021/12/22 03:50:33;;;;;;;;;103.33;89.33;;;;;;;;5050506;27;8813;-79
2021/12/22 03:52:59;;;;;;;;;116.50;109.00;;;;;;;;5083007;27;9762;-79
2021/12/22 03:55:24;;;;;;;;;106.25;88.50;;;;;;;;5050478;28;8839;-79
2021/12/22 03:57:50;;;;;;;;;96.75;75.25;;;;;;;;5049354;27;8820;-79
2021/12/22 04:00:16;;;;;;;;;103.25;84.75;;;;;;;;5048259;28;8827;-78
2021/12/22 04:02:42;;;;;;;;;109.25;94.25;;;;;;;;5050072;27;8811;-79
2021/12/22 04:05:08;;;;;;;;;96.25;76.50;;;;;;;;5054541;27;8823;-79
2021/12/22 04:07:33;;;;;;;;;99.75;82.00;;;;;;;;5050130;27;8844;-79
2021/12/22 04:09:59;;;;;;;;;73.00;58.00;;;;;;;;5049798;28;8835;-79
2021/12/22 04:12:24;;;;;;;;;90.75;72.75;;;;;;;;5049898;27;8820;-79
2021/12/22 04:14:49;;;;;;;;;96.50;78.50;;;;;;;;5049930;27;8858;-79
2021/12/22 04:17:15;;;;;;;;;109.67;97.67;;;;;;;;5049589;27;8824;-79
2021/12/22 04:19:40;;;;;;;;;97.00;76.50;;;;;;;;5049890;28;9584;-79
2021/12/22 04:22:06;;;;;;;;;98.33;79.00;;;;;;;;5049656;28;9027;-79
2021/12/22 04:24:32;;;;;;;;;94.67;77.33;;;;;;;;5052985;27;8899;-79
2021/12/22 04:26:57;;;;;;;;;95.00;76.50;;;;;;;;5049415;28;8824;-79
2021/12/22 04:29:22;;;;;;;;;94.50;75.00;;;;;;;;5049435;27;8892;-79
2021/12/22 04:31:48;;;;;;;;;101.67;81.67;;;;;;;;5049443;28;8834;-80
2021/12/22 04:34:13;;;;;;;;;95.50;77.25;;;;;;;;5049327;27;8854;-79
2021/12/22 04:36:39;;;;;;;;;100.25;80.50;;;;;;;;5049707;28;8827;-79
2021/12/22 04:39:06;;;;;;;;;93.25;74.25;;;;;;;;5048074;28;8855;-79
2021/12/22 04:41:31;;;;;;;;;93.00;73.50;;;;;;;;5049942;27;8847;-79
2021/12/22 04:43:56;;;;;;;;;88.50;69.75;;;;;;;;5083753;27;8988;-78
2021/12/22 04:46:22;;;;;;;;;76.67;60.00;;;;;;;;5049820;28;8836;-80
2021/12/22 04:48:48;;;;;;;;;85.00;68.33;;;;;;;;5049193;28;8832;-79
2021/12/22 04:51:22;;;;;;;;;80.25;65.50;;;;;;;;5049327;27;8992;-80
2021/12/22 04:54:14;;;;;;;;;74.67;59.33;;;;;;;;5049016;28;8872;-80
2021/12/22 04:56:40;;;;;;;;;76.33;63.33;;;;;;;;5049154;28;9040;-80
2021/12/22 04:59:05;;;;;;;;;84.33;64.33;;;;;;;;5049025;27;8824;-80
2021/12/22 05:01:31;;;;;;;;;75.00;59.00;;;;;;;;5049313;28;8812;-80
2021/12/22 05:03:56;;;;;;;;;76.00;61.67;;;;;;;;5049147;27;8816;-80
2021/12/22 05:06:22;;;;;;;;;82.33;63.33;;;;;;;;5053013;27;8824;-80
2021/12/22 05:08:47;;;;;;;;;75.33;56.67;;;;;;;;5047619;27;8832;-80
2021/12/22 05:11:12;;;;;;;;;75.67;58.00;;;;;;;;5050024;28;9545;-80
2021/12/22 05:13:38;;;;;;;;;75.67;57.67;;;;;;;;5052153;27;8804;-80
2021/12/22 05:16:05;;;;;;;;;81.00;63.00;;;;;;;;5051896;28;8974;-80
2021/12/22 05:18:49;;;;;;;;;67.25;53.25;;;;;;;;5052136;28;8772;-80
2021/12/22 05:21:15;;;;;;;;;68.20;50.00;;;;;;;;5051689;28;8773;-80
2021/12/22 05:23:40;;;;;;;;;81.00;65.75;;;;;;;;5062445;27;8777;-79
2021/12/22 05:26:06;;;;;;;;;70.00;50.33;;;;;;;;5049496;27;8808;-79
2021/12/22 05:28:31;;;;;;;;;88.00;68.33;;;;;;;;5051929;27;8812;-80
2021/12/22 05:30:56;;;;;;;;;83.25;65.75;;;;;;;;5056337;28;9619;-80
2021/12/22 05:33:21;;;;;;;;;93.50;73.00;;;;;;;;5060819;27;8808;-79
2021/12/22 05:35:47;;;;;;;;;99.00;73.50;;;;;;;;5050279;28;8995;-80
2021/12/22 05:38:12;;;;;;;;;76.25;63.25;;;;;;;;5052497;28;8819;-80
2021/12/22 05:40:38;;;;;;;;;87.67;71.67;;;;;;;;5065766;28;9516;-80
2021/12/22 05:43:03;;;;;;;;;94.25;74.25;;;;;;;;5065281;27;8942;-80
2021/12/22 05:45:29;;;;;;;;;101.67;80.33;;;;;;;;5065469;27;8824;-80
2021/12/22 05:47:54;;;;;;;;;95.67;72.33;;;;;;;;5050594;27;8832;-80
2021/12/22 05:50:21;;;;;;;;;101.25;81.50;;;;;;;;5051565;28;8796;-82
2021/12/22 05:52:46;;;;;;;;;99.33;77.33;;;;;;;;5090557;27;8797;-81
2021/12/22 05:55:12;;;;;;;;;101.25;77.75;;;;;;;;5051649;28;10170;-81
2021/12/22 05:57:37;;;;;;;;;99.75;77.00;;;;;;;;5051320;27;8823;-81
2021/12/22 06:00:03;;;;;;;;;108.00;85.67;;;;;;;;5049628;28;8832;-81
2021/12/22 06:02:29;;;;;;;;;96.25;74.75;;;;;;;;5051805;27;8765;-80
2021/12/22 06:04:54;;;;;;;;;96.33;73.00;;;;;;;;5055904;27;9555;-81
2021/12/22 06:07:19;;;;;;;;;91.67;73.33;;;;;;;;5051460;27;11639;-80
2021/12/22 06:09:45;;;;;;;;;98.25;78.75;;;;;;;;5051119;28;11584;-80
2021/12/22 06:12:10;;;;;;;;;90.00;72.33;;;;;;;;5051225;28;8800;-80
2021/12/22 06:14:35;;;;;;;;;88.50;70.50;;;;;;;;5051432;27;8962;-80
2021/12/22 06:17:00;;;;;;;;;109.50;93.00;;;;;;;;5051699;27;8836;-79
2021/12/22 06:19:26;;;;;;;;;97.00;77.25;;;;;;;;5051913;27;8877;-79
2021/12/22 06:21:51;;;;;;;;;110.33;93.00;;;;;;;;5051246;28;9519;-79
2021/12/22 06:24:17;;;;;;;;;111.00;96.25;;;;;;;;5063628;27;8823;-79
2021/12/22 06:26:42;;;;;;;;;110.25;94.75;;;;;;;;5049184;28;8808;-80
2021/12/22 06:29:08;;;;;;;;;120.33;109.33;;;;;;;;5050258;27;8898;-80
2021/12/22 06:31:33;;;;;;;;;114.25;99.75;;;;;;;;5052173;28;8815;-80
2021/12/22 06:33:59;;;;;;;;;125.25;112.75;;;;;;;;5051916;27;8791;-79
2021/12/22 06:36:24;;;;;;;;;117.00;105.67;;;;;;;;5050416;28;8840;-80
2021/12/22 06:38:49;;;;;;;;;93.50;76.25;;;;;;;;5051325;27;8800;-81
2021/12/22 06:41:15;;;;;;;;;107.00;91.75;;;;;;;;5051379;27;8894;-79
2021/12/22 06:43:40;;;;;;;;;97.33;76.67;;;;;;;;5083937;27;8782;-80
2021/12/22 06:46:06;;;;;;;;;96.50;77.00;;;;;;;;5058851;27;8808;-80
2021/12/22 06:48:31;;;;;;;;;117.75;108.25;;;;;;;;5051094;27;8796;-80
2021/12/22 06:50:56;;;;;;;;;100.25;80.00;;;;;;;;5067549;27;8936;-79
2021/12/22 06:53:22;;;;;;;;;105.75;87.75;;;;;;;;5092410;27;8834;-79
2021/12/22 06:55:47;;;;;;;;;109.67;98.67;;;;;;;;5050127;28;9587;-80
2021/12/22 06:58:12;;;;;;;;;108.00;89.00;;;;;;;;5050677;27;8892;-79
2021/12/22 07:00:38;;;;;;;;;96.50;73.50;;;;;;;;5050733;27;10033;-78
2021/12/22 07:03:05;;;;;;;;;108.00;91.67;;;;;;;;5050658;28;8918;-79
2021/12/22 07:05:30;;;;;;;;;110.00;95.50;;;;;;;;5055240;27;8777;-82
2021/12/22 07:07:56;;;;;;;;;98.75;77.75;;;;;;;;5050413;28;9645;-81
2021/12/22 07:10:21;;;;;;;;;104.33;82.00;;;;;;;;5050792;28;8812;-82
2021/12/22 07:12:47;;;;;;;;;109.00;92.00;;;;;;;;5050326;27;11704;-82
2021/12/22 07:15:14;;;;;;;;;109.75;92.00;;;;;;;;5050566;28;8830;-82
2021/12/22 07:17:41;;;;;;;;;112.75;94.50;;;;;;;;5050410;27;8800;-82
2021/12/22 07:20:07;;;;;;;;;109.50;93.00;;;;;;;;5050619;28;8777;-82
2021/12/22 07:22:33;;;;;;;;;111.00;93.25;;;;;;;;5063596;27;11573;-81
2021/12/22 07:24:58;;;;;;;;;110.75;92.75;;;;;;;;5070592;27;8830;-81
2021/12/22 07:27:24;;;;;;;;;130.50;121.00;;;;;;;;5047516;28;8827;-81
2021/12/22 07:29:49;;;;;;;;;111.25;97.25;;;;;;;;5061935;28;8849;-81
2021/12/22 07:32:14;;;;;;;;;135.33;130.00;;;;;;;;5050386;27;8843;-81
2021/12/22 07:34:47;;;;;;;;;148.67;143.33;;;;;;;;5055321;28;8760;-81
2021/12/22 07:37:21;;;;;;;;;103.75;87.75;;;;;;;;5066777;28;8744;-81
2021/12/22 07:39:47;;;;;;;;;110.00;98.25;;;;;;;;5050459;27;11559;-82
2021/12/22 07:42:12;;;;;;;;;122.33;106.67;;;;;;;;5050147;28;11786;-82
2021/12/22 07:44:38;;;;;;;;;99.50;80.25;;;;;;;;5066270;27;8847;-82
2021/12/22 07:47:03;;;;;;;;;103.00;82.25;;;;;;;;5050090;28;8952;-82
2021/12/22 07:49:28;;;;;;;;;104.50;83.75;;;;;;;;5050722;28;9023;-82
2021/12/22 07:51:54;;;;;;;;;93.75;76.50;;;;;;;;5084105;27;8893;-82
2021/12/22 07:54:19;;;;;;;;;103.25;84.50;;;;;;;;5050547;27;8800;-81
2021/12/22 07:56:44;;;;;;;;;129.67;123.00;;;;;;;;5050016;28;8859;-81
2021/12/22 07:59:10;;;;;;;;;119.50;107.75;;;;;;;;5049849;27;8908;-81
2021/12/22 08:01:35;;;;;;;;;112.50;96.25;;;;;;;;5049139;28;8867;-81
2021/12/22 08:04:01;;;;;;;;;115.00;96.67;;;;;;;;5056824;27;9003;-81
2021/12/22 08:06:26;;;;;;;;;107.00;90.00;;;;;;;;5062613;27;8998;-80
2021/12/22 08:08:51;;;;;;;;;112.67;97.67;;;;;;;;5051929;27;8808;-80
2021/12/22 08:11:17;;;;;;;;;105.75;90.00;;;;;;;;5048150;27;8955;-79
2021/12/22 08:13:42;;;;;;;;;100.75;81.75;;;;;;;;5095407;27;8957;-79
2021/12/22 08:16:07;;;;;;;;;98.33;79.00;;;;;;;;5100768;27;8855;-78
2021/12/22 08:18:33;;;;;;;;;83.25;66.50;;;;;;;;5049763;27;8964;-79
2021/12/22 08:20:58;;;;;;;;;103.50;82.25;;;;;;;;5152062;27;8847;-79
2021/12/22 08:23:23;;;;;;;;;100.00;81.25;;;;;;;;5125295;27;8840;-78
2021/12/22 08:25:49;;;;;;;;;96.00;75.50;;;;;;;;5047167;27;9179;-79
2021/12/22 08:28:14;;;;;;;;;99.67;80.00;;;;;;;;5085658;27;9610;-79
2021/12/22 08:30:40;;;;;;;;;107.33;87.33;;;;;;;;5055584;27;8805;-79
2021/12/22 08:33:09;;;;;;;;;91.00;71.00;;;;;;;;5057945;27;9532;-79
2021/12/22 08:38:50;;;;;;;;;87.00;67.75;;;;;;;;5130409;27;8825;-78
2021/12/22 08:41:04;;;;;;;;;102.00;78.25;;;;;;;;5064365;27;8750;-76
2021/12/22 08:43:30;;;;;;;;;88.50;66.25;;;;;;;;5086822;27;8843;-76
2021/12/22 08:45:55;;;;;;;;;83.67;64.33;;;;;;;;5069535;27;9553;-77
2021/12/22 08:48:20;;;;;;;;;85.75;64.75;;;;;;;;5064810;27;8820;-78
2021/12/22 08:50:46;;;;;;;;;94.67;76.33;;;;;;;;5086994;27;8808;-79
2021/12/22 08:53:11;;;;;;;;;87.25;65.00;;;;;;;;5052676;27;11112;-80
2021/12/22 08:55:36;;;;;;;;;88.67;69.67;;;;;;;;5052726;27;8886;-80
2021/12/22 08:58:02;;;;;;;;;68.00;57.50;;;;;;;;5066161;27;8840;-80
2021/12/22 09:00:27;;;;;;;;;77.67;58.00;;;;;;;;5060880;27;9044;-79
2021/12/22 09:02:52;;;;;;;;;71.75;60.50;;;;;;;;5074485;27;8786;-80
2021/12/22 09:05:18;;;;;;;;;68.75;53.25;;;;;;;;5090148;27;9663;-80
2021/12/22 09:07:43;;;;;;;;;73.33;56.67;;;;;;;;5056452;27;8832;-78
2021/12/22 09:10:08;;;;;;;;;52.33;41.67;;;;;;;;5054891;27;11530;-78
2021/12/22 09:12:34;;;;;;;;;50.25;38.75;;;;;;;;5064572;27;8796;-78
2021/12/22 09:14:59;;;;;;;;;49.75;34.50;;;;;;;;5064260;27;8958;-81
2021/12/22 09:17:25;;;;;;;;;56.00;38.75;;;;;;;;5051457;27;8811;-79
2021/12/22 09:19:52;;;;;;;;;0.00;0.00;;;;;;;;5076545;27;8820;-78
2021/12/22 09:22:17;;;;;;;;;36.50;24.50;;;;;;;;5086249;27;8782;-77
2021/12/22 09:24:43;;;;;;;;;54.25;38.25;;;;;;;;5054890;27;8816;-77
2021/12/22 09:27:08;;;;;;;;;42.33;30.33;;;;;;;;5079778;27;8804;-78
2021/12/22 09:29:33;;;;;;;;;51.33;36.33;;;;;;;;5051136;27;8944;-76
2021/12/22 09:31:59;;;;;;;;;41.50;34.75;;;;;;;;5050502;27;11550;-77
2021/12/22 09:34:24;;;;;;;;;59.33;42.33;;;;;;;;5051123;27;8820;-77
2021/12/22 09:36:50;;;;;;;;;53.50;42.75;;;;;;;;5055936;28;11081;-77
2021/12/22 09:39:15;;;;;;;;;98.00;77.50;;;;;;;;5051450;27;8847;-76
2021/12/22 09:41:40;;;;;;;;;107.00;92.00;;;;;;;;5051712;28;11597;-76
2021/12/22 09:44:06;;;;;;;;;139.60;129.40;;;;;;;;5056421;27;8964;-76
2021/12/22 09:46:31;;;;;;;;;142.60;137.40;;;;;;;;5051166;28;8804;-75
2021/12/22 09:49:08;;;;;;;;;204.33;193.83;;;;;;;;5051983;27;11710;-75
2021/12/22 09:54:01;;;;;;;;;227.83;220.00;;;;;;;;5065205;27;8782;-76
2021/12/22 09:56:30;;;;;;;;;282.20;281.00;;;;;;;;5053534;27;8859;-76
2021/12/22 09:58:56;;;;;;;;;343.71;339.71;;;;;;;;5048085;27;8948;-76
2021/12/22 10:01:23;;;;;;;;;424.50;418.33;;;;;;;;5050018;28;8788;-76
2021/12/22 10:03:50;;;;;;;;;396.17;388.83;;;;;;;;5054590;28;8757;-76
2021/12/22 10:06:15;;;;;;;;;464.29;450.86;;;;;;;;5051512;27;8977;-77
2021/12/22 10:08:50;;;;;;;;;537.83;522.83;;;;;;;;5050259;28;8792;-76
2021/12/22 10:11:15;;;;;;;;;460.17;457.67;;;;;;;;5049068;28;8823;-76
2021/12/22 10:13:43;;;;;;;;;496.00;487.00;;;;;;;;5050010;28;8800;-76
2021/12/22 10:16:14;;;;;;;;;588.86;581.29;;;;;;;;5066409;27;8836;-76
2021/12/22 10:18:39;;;;;;;;;649.33;643.00;;;;;;;;5066424;28;8780;-76
2021/12/22 10:21:09;;;;;;;;;602.17;594.17;;;;;;;;5054180;27;8797;-78
2021/12/22 10:23:35;;;;;;;;;523.71;515.29;;;;;;;;5045518;27;8764;-78
2021/12/22 10:26:03;;;;;;;;;579.50;576.67;;;;;;;;5064305;27;9534;-76
2021/12/22 10:28:30;;;;;;;;;560.43;550.43;;;;;;;;5050049;27;8784;-76
2021/12/22 10:31:01;;;;;;;;;578.00;567.17;;;;;;;;5049870;27;8799;-77
2021/12/22 10:33:28;;;;;;;;;538.43;531.00;;;;;;;;5050099;27;9623;-76
2021/12/22 10:35:57;;;;;;;;;499.83;486.17;;;;;;;;5049878;28;8816;-76
2021/12/22 10:38:24;;;;;;;;;524.17;520.83;;;;;;;;5050263;27;8877;-77
2021/12/22 10:40:52;;;;;;;;;493.67;490.50;;;;;;;;5048420;28;9777;-76
2021/12/22 10:43:20;;;;;;;;;503.67;494.17;;;;;;;;5064689;27;8859;-77
2021/12/22 10:45:48;;;;;;;;;446.00;436.50;;;;;;;;5085908;27;8792;-77
2021/12/22 10:51:02;;;;;;;;;407.00;400.20;;;;;;;;5054619;27;9702;-79
2021/12/22 10:53:27;;;;;;;;;400.60;393.80;;;;;;;;5050746;27;8855;-77
2021/12/22 10:55:54;;;;;;;;;366.80;360.00;;;;;;;;5063359;28;8812;-77
2021/12/22 10:58:20;;;;;;;;;274.25;261.50;;;;;;;;5050344;27;8725;-79
2021/12/22 11:01:05;;;;;;;;;188.25;183.75;;;;;;;;5049986;27;9675;-77
2021/12/22 11:03:37;;;;;;;;;205.25;201.25;;;;;;;;5050647;27;8895;-78
2021/12/22 11:06:09;;;;;;;;;187.75;177.25;;;;;;;;5051380;27;8771;-77
2021/12/22 11:08:34;;;;;;;;;159.25;151.25;;;;;;;;5049456;28;8788;-77
2021/12/22 11:11:10;;;;;;;;;102.33;88.67;;;;;;;;5049893;27;8987;-77
2021/12/22 11:13:35;;;;;;;;;74.50;58.75;;;;;;;;5050319;27;8808;-76
2021/12/22 11:16:01;;;;;;;;;90.00;70.33;;;;;;;;5050419;27;8850;-77
2021/12/22 11:18:26;;;;;;;;;73.25;59.00;;;;;;;;5053526;28;8805;-77
2021/12/22 11:21:08;;;;;;;;;52.67;35.67;;;;;;;;5052725;27;8808;-77
2021/12/22 11:23:34;;;;;;;;;55.67;40.33;;;;;;;;5056763;27;8768;-77
2021/12/22 11:25:59;;;;;;;;;84.50;67.75;;;;;;;;5051915;27;9606;-77
2021/12/22 11:28:25;;;;;;;;;82.67;64.67;;;;;;;;5050491;27;8931;-79
2021/12/22 11:30:50;;;;;;;;;81.67;58.00;;;;;;;;5050969;28;9680;-77
2021/12/22 11:33:16;;;;;;;;;67.75;54.75;;;;;;;;5059173;27;8805;-77
2021/12/22 11:35:42;;;;;;;;;87.33;68.00;;;;;;;;5050474;28;8839;-79
2021/12/22 11:38:07;;;;;;;;;92.00;68.50;;;;;;;;5050697;27;8808;-79
2021/12/22 11:40:33;;;;;;;;;104.00;89.50;;;;;;;;5048960;28;8831;-79
2021/12/22 11:42:58;;;;;;;;;85.00;65.00;;;;;;;;5052400;27;8925;-76
2021/12/22 11:45:25;;;;;;;;;38.75;30.00;;;;;;;;5062138;27;8823;-74
2021/12/22 11:47:52;;;;;;;;;36.50;24.00;;;;;;;;5050316;28;9686;-74
2021/12/22 11:50:28;;;;;;;;;25.75;19.00;;;;;;;;5050329;28;8918;-76
2021/12/22 11:52:54;;;;;;;;;36.75;25.50;;;;;;;;5084586;27;8796;-76
2021/12/22 11:55:25;;;;;;;;;41.75;27.50;;;;;;;;5051897;27;8803;-76
2021/12/22 11:58:10;;;;;;;;;57.60;44.40;;;;;;;;5049366;27;8823;-76
2021/12/22 12:00:36;;;;;;;;;72.00;51.75;;;;;;;;5050268;28;8784;-77
2021/12/22 12:03:28;;;;;;;;;63.33;48.33;;;;;;;;5049645;27;8868;-77
2021/12/22 12:06:02;;;;;;;;;56.40;38.60;;;;;;;;5055772;27;11531;-77
2021/12/22 12:08:32;;;;;;;;;48.50;33.00;;;;;;;;5050549;28;8808;-77
2021/12/22 12:10:59;;;;;;;;;56.75;41.50;;;;;;;;5049647;28;8803;-77
2021/12/22 12:13:34;;;;;;;;;41.50;28.00;;;;;;;;5050004;27;9002;-77
2021/12/22 12:21:55;;;;;;;;;38.80;22.80;;;;;;;;5052973;27;8744;-80
2021/12/22 12:24:33;;;;;;;;;32.80;21.80;;;;;;;;5052534;27;8962;-80
2021/12/22 12:26:59;;;;;;;;;32.33;20.33;;;;;;;;5065402;28;8784;-76
2021/12/22 12:29:43;;;;;;;;;35.67;18.67;;;;;;;;5059474;27;12232;-76
2021/12/22 12:32:08;;;;;;;;;37.75;21.00;;;;;;;;5062331;28;8789;-76
2021/12/22 12:34:38;;;;;;;;;42.00;26.25;;;;;;;;5064324;27;8814;-78
2021/12/22 12:37:06;;;;;;;;;34.25;17.25;;;;;;;;5055344;28;8792;-76
2021/12/22 12:40:01;;;;;;;;;30.60;21.20;;;;;;;;5059071;27;8786;-79
2021/12/22 12:42:26;;;;;;;;;30.25;21.50;;;;;;;;5079329;28;8805;-79
2021/12/22 12:44:51;;;;;;;;;54.50;41.25;;;;;;;;5120054;27;8804;-78
2021/12/22 12:47:20;;;;;;;;;41.75;26.25;;;;;;;;5054952;28;9686;-79
2021/12/22 12:49:45;;;;;;;;;61.75;47.75;;;;;;;;5055982;27;8755;-79
2021/12/22 12:52:18;;;;;;;;;71.67;55.33;;;;;;;;5064025;27;9572;-79
2021/12/22 12:54:45;;;;;;;;;57.50;49.75;;;;;;;;5055950;28;8808;-79
2021/12/22 12:57:10;;;;;;;;;79.25;57.75;;;;;;;;5055703;28;8816;-78
2021/12/22 12:59:39;;;;;;;;;71.25;53.50;;;;;;;;5061193;27;8879;-79
2021/12/22 13:02:08;;;;;;;;;73.20;53.80;;;;;;;;5068802;28;9635;-78
2021/12/22 13:04:39;;;;;;;;;76.60;59.60;;;;;;;;5061357;27;8733;-81
2021/12/22 13:07:06;;;;;;;;;58.80;47.40;;;;;;;;5055063;27;8832;-77
2021/12/22 13:09:33;;;;;;;;;65.50;50.25;;;;;;;;5055426;27;8800;-78
2021/12/22 13:17:20;;;;;;;;;33.80;20.20;;;;;;;;5048851;28;8796;-78
2021/12/22 13:19:47;;;;;;;;;55.33;42.67;;;;;;;;5061417;27;8855;-78
2021/12/22 13:22:20;;;;;;;;;47.25;29.75;;;;;;;;5069925;27;8800;-82
2021/12/22 13:24:46;;;;;;;;;34.60;24.20;;;;;;;;5078108;27;9213;-81
2021/12/22 13:27:12;;;;;;;;;54.33;38.33;;;;;;;;5054654;28;8811;-78
2021/12/22 13:29:39;;;;;;;;;78.67;54.33;;;;;;;;5058919;27;8859;-78
2021/12/22 13:32:08;;;;;;;;;64.00;49.67;;;;;;;;5051382;28;8823;-78
2021/12/22 13:34:46;;;;;;;;;62.33;44.00;;;;;;;;5051924;27;11490;-76
2021/12/22 13:37:11;;;;;;;;;57.75;38.25;;;;;;;;5051535;27;9806;-76
2021/12/22 13:39:45;;;;;;;;;61.33;44.67;;;;;;;;5051920;27;8789;-77
2021/12/22 13:42:11;;;;;;;;;34.00;18.50;;;;;;;;5052923;27;8804;-77
2021/12/22 13:44:37;;;;;;;;;34.33;26.33;;;;;;;;5083297;27;9009;-77
2021/12/22 13:47:03;;;;;;;;;31.75;26.75;;;;;;;;5050314;27;8768;-77
2021/12/22 13:49:28;;;;;;;;;42.33;29.00;;;;;;;;5052319;28;9567;-77
2021/12/22 13:51:54;;;;;;;;;57.00;46.00;;;;;;;;5096710;27;9580;-77
2021/12/22 13:54:22;;;;;;;;;64.50;45.50;;;;;;;;5049955;28;8824;-76
2021/12/22 13:56:49;;;;;;;;;67.67;46.67;;;;;;;;5051380;27;8812;-77
2021/12/22 13:59:23;;;;;;;;;54.80;44.80;;;;;;;;5051699;28;10534;-77
2021/12/22 14:01:49;;;;;;;;;27.75;22.50;;;;;;;;5052064;28;8780;-77
2021/12/22 14:04:25;;;;;;;;;41.00;33.00;;;;;;;;5055718;27;8804;-78
2021/12/22 14:06:54;;;;;;;;;35.00;22.75;;;;;;;;5043694;27;8819;-78
2021/12/22 14:09:21;;;;;;;;;41.75;33.50;;;;;;;;5051425;27;8788;-78
2021/12/22 14:11:49;;;;;;;;;53.20;40.60;;;;;;;;5051473;27;10089;-77
2021/12/22 14:14:25;;;;;;;;;39.50;28.75;;;;;;;;5092261;27;8788;-78
2021/12/22 14:17:03;;;;;;;;;35.00;23.50;;;;;;;;5051843;28;8792;-77
2021/12/22 14:19:30;;;;;;;;;29.25;19.50;;;;;;;;5051363;27;8812;-79
2021/12/22 14:22:05;;;;;;;;;27.25;20.50;;;;;;;;5050212;27;8870;-79
2021/12/22 14:24:32;;;;;;;;;21.50;16.75;;;;;;;;5073035;27;8812;-81
2021/12/22 14:26:59;;;;;;;;;38.75;20.00;;;;;;;;5050119;28;8844;-83
2021/12/22 14:29:24;;;;;;;;;38.25;26.25;;;;;;;;5051595;27;8792;-80
2021/12/22 14:32:01;;;;;;;;;28.75;18.25;;;;;;;;5049866;28;11607;-80
2021/12/22 14:34:26;;;;;;;;;30.50;22.50;;;;;;;;5051507;27;8869;-79
2021/12/22 14:36:52;;;;;;;;;25.50;17.25;;;;;;;;5051194;28;8847;-79
2021/12/22 14:39:18;;;;;;;;;28.50;16.75;;;;;;;;5051821;27;8827;-79
2021/12/22 14:41:44;;;;;;;;;31.67;18.00;;;;;;;;5051137;28;8815;-79
2021/12/22 14:44:23;;;;;;;;;38.00;21.75;;;;;;;;5104749;27;8798;-79
2021/12/22 14:46:49;;;;;;;;;29.00;18.25;;;;;;;;5050344;28;9751;-79
2021/12/22 14:49:16;;;;;;;;;38.40;24.80;;;;;;;;5061132;28;8835;-79
2021/12/22 14:51:42;;;;;;;;;35.50;20.75;;;;;;;;5059836;27;9589;-79